EST,Max TemperatureF,Mean TemperatureF,Min TemperatureF,Max Dew PointF,MeanDew PointF,Min DewpointF,Max Humidity, Mean Humidity, Min Humidity, Max Sea Level PressureIn, Mean Sea Level PressureIn, Min Sea Level PressureIn, Max VisibilityMiles, Mean VisibilityMiles, Min VisibilityMiles, Max Wind SpeedMPH, Mean Wind SpeedMPH, Max Gust SpeedMPH,PrecipitationIn, CloudCover, Events, WindDirDegrees
1999-1-1,12,0,-11,10,-7,-24,92,70,46,30.46,30.00,29.80,10,6,0,17,4,26,0.00,6,Fog-Snow,289
1999-1-2,5,-3,-11,-4,-14,-23,72,59,48,30.53,30.50,30.47,10,10,4,13,6,22,0.00,1,,283
1999-1-3,27,14,1,27,16,-4,100,88,65,30.43,29.95,29.52,10,4,0,21,5,31,0.95,8,Fog-Rain-Snow,269
1999-1-4,28,21,14,27,16,4,100,77,50,29.93,29.70,29.51,10,6,1,17,6,25,0.00,6,Snow,267
1999-1-5,14,0,-18,10,-5,-22,87,68,41,30.30,30.12,29.86,10,9,1,10,6,20,0.00,2,Snow,295
1999-1-6,21,-1,-23,12,-6,-29,82,67,48,30.31,30.12,29.86,10,9,3,17,3,23,0.00,3,Snow,165
1999-1-7,26,10,-6,18,1,-15,87,60,29,30.32,30.03,29.81,10,8,1,20,9,37,0.00,6,Snow,270
1999-1-8,21,2,-16,18,1,-22,88,75,37,30.52,30.32,30.03,10,6,1,13,2,,0.05,5,Snow,140
1999-1-9,33,24,14,32,22,8,100,90,73,30.01,29.67,29.45,10,4,0,14,5,20,0.56,8,Fog-Rain-Snow,309
1999-1-10,12,-2,-15,7,0,-20,88,76,59,30.08,29.98,29.83,10,9,6,9,5,17,0.00,4,,285
1999-1-11,16,2,-11,10,-1,-16,85,76,62,30.15,29.95,29.81,10,7,0,10,3,16,0.00,6,Fog-Snow,295
1999-1-12,23,8,-6,19,3,-11,93,84,78,30.12,29.89,29.77,10,4,1,8,3,,0.06,8,Snow,331
1999-1-13,19,0,-20,16,7,-25,93,81,63,30.69,30.18,30.01,10,4,0,16,5,23,0.30,6,Fog-Snow,329
1999-1-14,6,-14,-35,1,-7,-29,85,75,53,30.91,30.73,30.50,10,6,1,8,1,,0.01,4,Snow,335
1999-1-15,35,20,6,34,17,1,100,89,78,30.56,29.99,29.48,10,4,0,15,5,22,0.64,8,Fog-Rain-Snow,321
1999-1-16,33,24,15,27,15,7,88,75,62,29.83,29.74,29.62,10,9,5,16,7,23,0.00,6,Snow,308
1999-1-17,37,28,18,28,24,17,100,80,65,30.31,30.13,29.76,10,7,0,16,8,24,0.00,6,Fog,276
1999-1-18,43,28,12,41,28,8,100,88,62,30.29,29.91,29.45,10,6,0,17,5,31,0.73,6,Fog-Rain,176
1999-1-19,41,37,33,36,25,20,85,67,54,29.80,29.66,29.49,10,9,3,21,9,32,0.00,7,Rain-Snow,241
1999-1-20,33,30,27,25,23,20,76,72,64,30.10,29.94,29.81,10,9,4,14,8,22,0.00,8,Snow,275
1999-1-21,37,27,17,24,20,14,93,79,50,30.30,30.20,30.08,10,10,8,4,0,,0.00,5,,5
1999-1-22,37,31,25,27,24,22,92,79,57,30.56,30.49,30.32,10,7,1,15,2,,0.06,7,Snow,117
1999-1-23,36,31,26,31,27,21,100,86,78,30.54,30.33,30.08,10,10,5,15,9,18,0.01,6,Rain,144
1999-1-24,48,38,28,43,17,-10,100,59,10,30.03,29.72,29.61,10,4,0,14,4,24,0.50,8,Fog-Rain,221
1999-1-25,28,20,12,5,3,1,64,46,31,30.22,29.93,29.72,10,10,8,18,12,31,0.00,3,,290
1999-1-26,28,14,0,19,9,-5,84,68,43,30.39,30.29,30.18,10,10,10,12,3,17,0.00,4,,334
1999-1-27,28,24,19,21,18,11,80,72,64,30.21,30.13,30.02,10,8,2,10,6,,0.00,8,Snow,313
1999-1-28,18,13,8,11,7,-1,92,76,53,30.18,30.08,30.00,10,3,1,9,5,,0.02,8,Snow,333
1999-1-29,21,10,0,9,3,-6,92,75,55,30.44,30.26,30.10,10,6,2,6,2,,0.02,6,Snow,333
1999-1-30,16,-2,-20,-4,-12,-27,87,64,36,30.78,30.56,30.43,10,10,8,9,2,17,0.00,0,,313
1999-1-31,21,-2,-25,-4,-17,-30,83,64,22,30.93,30.79,30.57,10,10,2,6,0,,0.00,0,,140